Time,TemperatureF,DewpointF,PressureIn,WindDirection,WindDirectionDegrees,WindSpeedMPH,WindSpeedGustMPH,Humidity,HourlyPrecipIn,Conditions,Clouds,dailyrainin,SoftwareType,DateUTC
2013-07-11 00:00:00,66.3,63.6,28.67,NW,321,0.0,3.0,91,0.00,,---,0.00,VWS V14.01,2013-07-11 04:00:00,
2013-07-11 00:02:00,66.3,63.6,28.67,NW,321,2.0,3.0,91,0.00,,---,0.00,VWS V14.01,2013-07-11 04:02:00,
2013-07-11 00:04:00,66.2,63.5,28.67,NW,321,3.0,3.0,91,0.00,,---,0.00,VWS V14.01,2013-07-11 04:04:00,
2013-07-11 00:06:00,66.2,63.5,28.67,NW,321,1.0,4.0,91,0.00,,---,0.00,VWS V14.01,2013-07-11 04:06:00,
2013-07-11 00:10:00,66.2,63.5,28.66,NW,322,4.0,4.0,91,0.00,,---,0.00,VWS V14.01,2013-07-11 04:10:00,
2013-07-11 00:16:00,66.3,63.3,28.66,NW,321,2.0,5.0,90,0.00,,---,0.00,VWS V14.01,2013-07-11 04:16:00,
2013-07-11 00:22:00,66.2,63.5,28.66,NNW,330,2.0,5.0,91,0.00,,---,0.00,VWS V14.01,2013-07-11 04:22:00,
2013-07-11 00:28:00,66.3,63.6,28.66,NNW,327,3.0,6.0,91,0.00,,---,0.00,VWS V14.01,2013-07-11 04:28:00,
2013-07-11 00:30:00,66.3,63.6,28.66,NNW,330,2.0,6.0,91,0.00,,---,0.00,VWS V14.01,2013-07-11 04:30:00,
2013-07-11 00:34:00,66.3,63.6,28.66,NW,313,3.0,6.0,91,0.00,,---,0.00,VWS V14.01,2013-07-11 04:34:00,
2013-07-11 00:40:00,66.3,63.6,28.66,NNW,331,3.0,8.0,91,0.00,,---,0.00,VWS V14.01,2013-07-11 04:40:00,
2013-07-11 00:46:00,66.3,63.6,28.66,NW,318,1.0,8.0,91,0.00,,---,0.00,VWS V14.01,2013-07-11 04:46:00,
2013-07-11 00:52:00,66.3,63.3,28.66,North,0,1.0,8.0,90,0.00,,---,0.00,VWS V14.01,2013-07-11 04:52:00,
2013-07-11 00:58:00,66.3,63.3,28.66,North,355,1.0,8.0,90,0.00,,---,0.00,VWS V14.01,2013-07-11 04:58:00,
2013-07-11 01:00:00,66.4,63.4,28.66,North,355,1.0,8.0,90,0.00,,---,0.00,VWS V14.01,2013-07-11 05:00:00,
2013-07-11 01:04:00,66.4,63.4,28.67,North,355,0.0,3.0,90,0.00,,---,0.00,VWS V14.01,2013-07-11 05:04:00,
2013-07-11 01:10:00,66.5,63.5,28.66,NNW,343,2.0,7.0,90,0.00,,---,0.00,VWS V14.01,2013-07-11 05:10:00,
2013-07-11 01:17:00,66.6,63.9,28.67,NNW,345,5.0,7.0,91,0.00,,---,0.00,VWS V14.01,2013-07-11 05:17:00,
2013-07-11 01:23:00,66.5,63.8,28.67,North,357,2.0,7.0,91,0.00,,---,0.00,VWS V14.01,2013-07-11 05:23:00,
2013-07-11 01:29:00,66.4,63.7,28.67,NW,315,7.0,9.0,91,0.00,,---,0.00,VWS V14.01,2013-07-11 05:29:00,
2013-07-11 01:30:00,66.3,63.6,28.67,NW,320,3.0,9.0,91,0.00,,---,0.00,VWS V14.01,2013-07-11 05:30:00,
2013-07-11 01:35:00,66.3,63.6,28.67,NNW,328,3.0,8.0,91,0.00,,---,0.00,VWS V14.01,2013-07-11 05:35:00,
2013-07-11 01:41:00,66.3,63.9,28.67,NNW,330,3.0,8.0,92,0.00,,---,0.00,VWS V14.01,2013-07-11 05:41:00,
2013-07-11 01:47:00,66.1,63.4,28.68,North,11,6.0,10.0,91,0.00,,---,0.00,VWS V14.01,2013-07-11 05:47:00,
2013-07-11 01:53:00,65.8,62.8,28.67,NNE,17,3.0,10.0,90,0.00,,---,0.00,VWS V14.01,2013-07-11 05:53:00,
2013-07-11 01:59:00,65.4,62.4,28.68,NNE,20,1.0,10.0,90,0.00,,---,0.00,VWS V14.01,2013-07-11 05:59:00,
2013-07-11 02:00:00,65.4,62.1,28.68,NNE,20,1.0,10.0,89,0.00,,---,0.00,VWS V14.01,2013-07-11 06:00:00,
2013-07-11 02:05:00,65.0,61.4,28.68,NNE,20,2.0,4.0,88,0.00,,---,0.00,VWS V14.01,2013-07-11 06:05:00,
2013-07-11 02:11:00,64.9,61.3,28.68,NNE,20,2.0,4.0,88,0.00,,---,0.00,VWS V14.01,2013-07-11 06:11:00,
2013-07-11 02:17:00,64.7,61.1,28.68,NNE,20,0.0,5.0,88,0.00,,---,0.00,VWS V14.01,2013-07-11 06:17:00,
2013-07-11 02:23:00,64.5,60.9,28.68,NNE,13,1.0,5.0,88,0.00,,---,0.00,VWS V14.01,2013-07-11 06:23:00,
2013-07-11 02:29:00,64.4,60.5,28.68,NNE,13,3.0,5.0,87,0.00,,---,0.00,VWS V14.01,2013-07-11 06:29:00,
2013-07-11 02:30:00,64.4,60.5,28.69,NNE,13,3.0,5.0,87,0.00,,---,0.00,VWS V14.01,2013-07-11 06:30:00,
2013-07-11 02:35:00,64.3,60.7,28.69,NNE,13,0.0,3.0,88,0.00,,---,0.00,VWS V14.01,2013-07-11 06:35:00,
2013-07-11 02:41:00,64.2,60.6,28.69,North,0,3.0,7.0,88,0.00,,---,0.00,VWS V14.01,2013-07-11 06:41:00,
2013-07-11 02:47:00,64.0,60.1,28.69,North,3,2.0,7.0,87,0.00,,---,0.00,VWS V14.01,2013-07-11 06:47:00,
2013-07-11 02:53:00,63.6,59.7,28.69,NNE,27,1.0,7.0,87,0.00,,---,0.00,VWS V14.01,2013-07-11 06:53:00,
2013-07-11 02:59:00,63.3,59.0,28.69,NE,46,2.0,7.0,86,0.00,,---,0.00,VWS V14.01,2013-07-11 06:59:00,
2013-07-11 03:00:00,63.3,59.0,28.69,NE,46,4.0,7.0,86,0.00,,---,0.00,VWS V14.01,2013-07-11 07:00:00,
2013-07-11 03:05:00,63.1,58.5,28.70,NE,42,1.0,4.0,85,0.00,,---,0.00,VWS V14.01,2013-07-11 07:05:00,
2013-07-11 03:11:00,63.0,58.4,28.70,NE,43,2.0,4.0,85,0.00,,---,0.00,VWS V14.01,2013-07-11 07:11:00,
2013-07-11 03:17:00,62.6,58.0,28.70,NE,43,0.0,5.0,85,0.00,,---,0.00,VWS V14.01,2013-07-11 07:17:00,
2013-07-11 03:24:00,62.4,57.5,28.70,NE,43,1.0,5.0,84,0.00,,---,0.00,VWS V14.01,2013-07-11 07:24:00,
2013-07-11 03:30:00,62.1,57.2,28.70,NE,43,0.0,5.0,84,0.00,,---,0.00,VWS V14.01,2013-07-11 07:30:00,
2013-07-11 03:36:00,62.0,57.1,28.70,NE,43,0.0,0.0,84,0.00,,---,0.00,VWS V14.01,2013-07-11 07:36:00,
2013-07-11 03:42:00,61.9,57.0,28.70,NE,43,0.0,1.0,84,0.00,,---,0.00,VWS V14.01,2013-07-11 07:42:00,
2013-07-11 03:48:00,61.9,57.0,28.70,NE,43,0.0,1.0,84,0.00,,---,0.00,VWS V14.01,2013-07-11 07:48:00,
2013-07-11 03:54:00,62.1,57.5,28.70,NE,43,0.0,1.0,85,0.00,,---,0.00,VWS V14.01,2013-07-11 07:54:00,
2013-07-11 04:00:00,61.8,57.2,28.71,NE,43,1.0,1.0,85,0.00,,---,0.00,VWS V14.01,2013-07-11 08:00:00,
2013-07-11 04:06:00,61.3,56.8,28.71,NE,43,0.0,1.0,85,0.00,,---,0.00,VWS V14.01,2013-07-11 08:06:00,
2013-07-11 04:12:00,60.9,56.4,28.71,NE,43,0.0,1.0,85,0.00,,---,0.00,VWS V14.01,2013-07-11 08:12:00,
2013-07-11 04:18:00,60.7,56.2,28.71,NE,43,0.0,1.0,85,0.00,,---,0.00,VWS V14.01,2013-07-11 08:18:00,
2013-07-11 04:24:00,60.2,56.0,28.71,NE,43,1.0,2.0,86,0.00,,---,0.00,VWS V14.01,2013-07-11 08:24:00,
2013-07-11 04:30:00,59.7,55.8,28.71,NE,43,0.0,2.0,87,0.00,,---,0.00,VWS V14.01,2013-07-11 08:30:00,
2013-07-11 04:36:00,59.5,55.6,28.71,NE,43,0.0,0.0,87,0.00,,---,0.00,VWS V14.01,2013-07-11 08:36:00,
2013-07-11 04:42:00,59.4,55.8,28.70,NE,43,0.0,0.0,88,0.00,,---,0.00,VWS V14.01,2013-07-11 08:42:00,
2013-07-11 04:48:00,59.2,55.7,28.71,NE,43,0.0,1.0,88,0.00,,---,0.00,VWS V14.01,2013-07-11 08:48:00,
2013-07-11 04:54:00,58.9,55.7,28.71,NE,43,0.0,1.0,89,0.00,,---,0.00,VWS V14.01,2013-07-11 08:54:00,
2013-07-11 05:00:00,58.7,55.5,28.71,NE,44,0.0,1.0,89,0.00,,---,0.00,VWS V14.01,2013-07-11 09:00:00,
2013-07-11 05:06:00,58.6,55.7,28.72,NE,48,0.0,2.0,90,0.00,,---,0.00,VWS V14.01,2013-07-11 09:06:00,
2013-07-11 05:12:00,58.2,55.3,28.71,NE,48,0.0,2.0,90,0.00,,---,0.00,VWS V14.01,2013-07-11 09:12:00,
2013-07-11 05:18:00,58.0,55.1,28.72,NE,53,0.0,2.0,90,0.00,,---,0.00,VWS V14.01,2013-07-11 09:18:00,
2013-07-11 05:24:00,57.8,55.2,28.72,NE,48,0.0,2.0,91,0.00,,---,0.00,VWS V14.01,2013-07-11 09:24:00,
2013-07-11 05:30:00,57.7,55.1,28.73,SSE,149,0.0,2.0,91,0.00,,---,0.00,VWS V14.01,2013-07-11 09:30:00,
2013-07-11 05:37:00,57.6,55.3,28.73,SE,143,0.0,0.0,92,0.00,,---,0.00,VWS V14.01,2013-07-11 09:37:00,
2013-07-11 05:43:00,57.4,55.1,28.73,SE,142,0.0,0.0,92,0.00,,---,0.00,VWS V14.01,2013-07-11 09:43:00,
2013-07-11 05:49:00,57.3,55.0,28.73,SE,142,0.0,2.0,92,0.00,,---,0.00,VWS V14.01,2013-07-11 09:49:00,
2013-07-11 05:55:00,57.1,54.8,28.74,SE,140,0.0,2.0,92,0.00,,---,0.00,VWS V14.01,2013-07-11 09:55:00,
2013-07-11 06:00:00,57.0,54.7,28.74,SE,139,0.0,2.0,92,0.00,,---,0.00,VWS V14.01,2013-07-11 10:00:00,
2013-07-11 06:01:00,57.0,55.0,28.74,SE,139,0.0,0.0,93,0.00,,---,0.00,VWS V14.01,2013-07-11 10:01:00,
2013-07-11 06:07:00,56.8,54.5,28.74,SE,138,0.0,0.0,92,0.00,,---,0.00,VWS V14.01,2013-07-11 10:07:00,
2013-07-11 06:13:00,56.7,54.7,28.74,SE,136,0.0,0.0,93,0.00,,---,0.00,VWS V14.01,2013-07-11 10:13:00,
2013-07-11 06:19:00,56.9,54.9,28.75,SE,138,0.0,0.0,93,0.00,,---,0.00,VWS V14.01,2013-07-11 10:19:00,
2013-07-11 06:25:00,57.0,55.0,28.75,SE,136,0.0,0.0,93,0.00,,---,0.00,VWS V14.01,2013-07-11 10:25:00,
2013-07-11 06:30:00,57.1,55.1,28.75,SE,136,0.0,0.0,93,0.00,,---,0.00,VWS V14.01,2013-07-11 10:30:00,
2013-07-11 06:31:00,57.1,55.1,28.75,SE,136,0.0,0.0,93,0.00,,---,0.00,VWS V14.01,2013-07-11 10:31:00,
2013-07-11 06:37:00,57.3,55.6,28.75,SE,136,0.0,0.0,94,0.00,,---,0.00,VWS V14.01,2013-07-11 10:37:00,
2013-07-11 06:43:00,57.5,55.8,28.75,SE,135,1.0,1.0,94,0.00,,---,0.00,VWS V14.01,2013-07-11 10:43:00,
2013-07-11 06:49:00,57.7,56.0,28.75,SE,134,1.0,1.0,94,0.00,,---,0.00,VWS V14.01,2013-07-11 10:49:00,
2013-07-11 06:55:00,57.7,56.0,28.75,SE,135,0.0,2.0,94,0.00,,---,0.00,VWS V14.01,2013-07-11 10:55:00,
2013-07-11 07:00:00,57.9,56.2,28.75,SE,135,0.0,2.0,94,0.00,,---,0.00,VWS V14.01,2013-07-11 11:00:00,
2013-07-11 07:01:00,58.0,56.3,28.75,SE,135,0.0,1.0,94,0.00,,---,0.00,VWS V14.01,2013-07-11 11:01:00,
2013-07-11 07:07:00,58.4,56.7,28.75,SE,134,0.0,1.0,94,0.00,,---,0.00,VWS V14.01,2013-07-11 11:07:00,
2013-07-11 07:13:00,59.0,57.3,28.76,SE,134,1.0,1.0,94,0.00,,---,0.00,VWS V14.01,2013-07-11 11:13:00,
2013-07-11 07:19:00,59.4,57.4,28.76,SE,136,0.0,2.0,93,0.00,,---,0.00,VWS V14.01,2013-07-11 11:19:00,
2013-07-11 07:25:00,60.2,57.9,28.75,SE,134,1.0,3.0,92,0.00,,---,0.00,VWS V14.01,2013-07-11 11:25:00,
2013-07-11 07:30:00,60.6,57.7,28.75,SE,125,2.0,5.0,90,0.00,,---,0.00,VWS V14.01,2013-07-11 11:30:00,
2013-07-11 07:31:00,60.8,57.5,28.75,ESE,120,4.0,4.0,89,0.00,,---,0.00,VWS V14.01,2013-07-11 11:31:00,
2013-07-11 07:37:00,61.3,57.4,28.76,ESE,118,1.0,4.0,87,0.00,,---,0.00,VWS V14.01,2013-07-11 11:37:00,
2013-07-11 07:43:00,61.6,57.0,28.76,ESE,118,2.0,4.0,85,0.00,,---,0.00,VWS V14.01,2013-07-11 11:43:00,
2013-07-11 07:50:00,62.1,56.9,28.76,ESE,119,4.0,5.0,83,0.00,,---,0.00,VWS V14.01,2013-07-11 11:50:00,
2013-07-11 07:56:00,62.4,56.5,28.76,SE,137,2.0,5.0,81,0.00,,---,0.00,VWS V14.01,2013-07-11 11:56:00,
2013-07-11 08:00:00,62.7,56.5,28.76,ESE,122,2.0,5.0,80,0.00,,---,0.00,VWS V14.01,2013-07-11 12:00:00,
2013-07-11 08:02:00,62.9,56.6,28.76,ESE,114,6.0,6.0,80,0.00,,---,0.00,VWS V14.01,2013-07-11 12:02:00,
2013-07-11 08:08:00,63.4,56.8,28.76,SE,140,2.0,6.0,79,0.00,,---,0.00,VWS V14.01,2013-07-11 12:08:00,
2013-07-11 08:14:00,63.9,56.6,28.77,SE,140,2.0,6.0,77,0.00,,---,0.00,VWS V14.01,2013-07-11 12:14:00,
2013-07-11 08:20:00,64.4,56.7,28.76,SE,139,2.0,6.0,76,0.00,,---,0.00,VWS V14.01,2013-07-11 12:20:00,
2013-07-11 08:26:00,64.7,56.2,28.77,SSE,157,2.0,6.0,74,0.00,,---,0.00,VWS V14.01,2013-07-11 12:26:00,
2013-07-11 08:30:00,64.9,56.4,28.77,SE,136,3.0,6.0,74,0.00,,---,0.00,VWS V14.01,2013-07-11 12:30:00,
2013-07-11 08:32:00,64.8,56.0,28.77,SSE,163,5.0,7.0,73,0.00,,---,0.00,VWS V14.01,2013-07-11 12:32:00,
2013-07-11 08:38:00,64.7,56.2,28.77,SE,127,7.0,8.0,74,0.00,,---,0.00,VWS V14.01,2013-07-11 12:38:00,
2013-07-11 08:44:00,65.0,56.5,28.76,ESE,120,2.0,8.0,74,0.00,,---,0.00,VWS V14.01,2013-07-11 12:44:00,
2013-07-11 08:50:00,65.1,55.9,28.77,South,176,7.0,10.0,72,0.00,,---,0.00,VWS V14.01,2013-07-11 12:50:00,
2013-07-11 08:56:00,65.1,55.9,28.77,SSE,148,2.0,11.0,72,0.00,,---,0.00,VWS V14.01,2013-07-11 12:56:00,
2013-07-11 09:00:00,65.2,56.0,28.77,SE,142,4.0,11.0,72,0.00,,---,0.00,VWS V14.01,2013-07-11 13:00:00,
2013-07-11 09:02:00,65.4,56.2,28.77,South,170,3.0,6.0,72,0.00,,---,0.00,VWS V14.01,2013-07-11 13:02:00,
2013-07-11 09:08:00,65.6,56.0,28.77,South,177,8.0,11.0,71,0.00,,---,0.00,VWS V14.01,2013-07-11 13:08:00,
2013-07-11 09:14:00,65.8,56.2,28.77,SSE,147,4.0,11.0,71,0.00,,---,0.00,VWS V14.01,2013-07-11 13:14:00,
2013-07-11 09:20:00,66.1,55.2,28.76,SSE,155,3.0,11.0,68,0.00,,---,0.00,VWS V14.01,2013-07-11 13:20:00,
2013-07-11 09:26:00,66.1,55.2,28.76,SE,135,2.0,11.0,68,0.00,,---,0.00,VWS V14.01,2013-07-11 13:26:00,
2013-07-11 09:30:00,66.3,55.8,28.75,SSE,147,1.0,11.0,69,0.00,,---,0.00,VWS V14.01,2013-07-11 13:30:00,
2013-07-11 09:32:00,66.6,55.7,28.75,SE,129,4.0,6.0,68,0.00,,---,0.00,VWS V14.01,2013-07-11 13:32:00,
2013-07-11 09:38:00,67.0,55.7,28.76,SSE,152,2.0,6.0,67,0.00,,---,0.00,VWS V14.01,2013-07-11 13:38:00,
2013-07-11 09:44:00,67.0,54.4,28.76,South,190,3.0,9.0,64,0.00,,---,0.00,VWS V14.01,2013-07-11 13:44:00,
2013-07-11 09:53:00,67.3,55.2,28.76,ESE,113,5.0,9.0,65,0.00,,---,0.00,VWS V14.01,2013-07-11 13:53:00,
2013-07-11 09:59:00,66.6,54.5,28.76,ESE,123,3.0,9.0,65,0.00,,---,0.00,VWS V14.01,2013-07-11 13:59:00,
2013-07-11 10:00:00,66.6,54.9,28.76,ESE,121,2.0,9.0,66,0.00,,---,0.00,VWS V14.01,2013-07-11 14:00:00,
2013-07-11 10:05:00,66.7,54.2,28.76,SSW,196,3.0,8.0,64,0.00,,---,0.00,VWS V14.01,2013-07-11 14:05:00,
2013-07-11 10:11:00,67.5,54.5,28.76,South,173,6.0,9.0,63,0.00,,---,0.00,VWS V14.01,2013-07-11 14:11:00,
2013-07-11 10:17:00,67.9,54.4,28.75,SSW,200,8.0,9.0,62,0.00,,---,0.00,VWS V14.01,2013-07-11 14:17:00,
2013-07-11 10:23:00,68.5,55.0,28.75,South,183,7.0,9.0,62,0.00,,---,0.00,VWS V14.01,2013-07-11 14:23:00,
2013-07-11 10:29:00,68.5,54.5,28.75,SSW,195,4.0,9.0,61,0.00,,---,0.00,VWS V14.01,2013-07-11 14:29:00,
2013-07-11 10:30:00,68.5,54.5,28.75,SSW,196,3.0,9.0,61,0.00,,---,0.00,VWS V14.01,2013-07-11 14:30:00,
2013-07-11 10:35:00,68.0,54.5,28.76,ESE,103,3.0,7.0,62,0.00,,---,0.00,VWS V14.01,2013-07-11 14:35:00,
2013-07-11 10:44:00,67.9,54.0,28.77,ESE,112,1.0,8.0,61,0.00,,---,0.00,VWS V14.01,2013-07-11 14:44:00,
2013-07-11 10:50:00,68.2,53.8,28.77,SSE,165,5.0,9.0,60,0.00,,---,0.00,VWS V14.01,2013-07-11 14:50:00,
2013-07-11 10:56:00,68.1,54.6,28.76,SSW,210,4.0,9.0,62,0.00,,---,0.00,VWS V14.01,2013-07-11 14:56:00,
2013-07-11 11:00:00,68.6,54.6,28.75,SSE,166,4.0,9.0,61,0.00,,---,0.00,VWS V14.01,2013-07-11 15:00:00,
2013-07-11 11:02:00,68.8,53.9,28.75,ESE,111,2.0,6.0,59,0.00,,---,0.00,VWS V14.01,2013-07-11 15:02:00,
2013-07-11 11:08:00,68.8,53.9,28.75,SSE,150,4.0,9.0,59,0.00,,---,0.00,VWS V14.01,2013-07-11 15:08:00,
2013-07-11 11:16:00,69.4,54.5,28.74,SSE,151,1.0,9.0,59,0.00,,---,0.00,VWS V14.01,2013-07-11 15:16:00,
2013-07-11 11:22:00,69.6,54.2,28.75,SSE,149,3.0,9.0,58,0.00,,---,0.00,VWS V14.01,2013-07-11 15:22:00,
2013-07-11 11:29:00,69.4,54.0,28.75,North,353,3.0,9.0,58,0.00,,---,0.00,VWS V14.01,2013-07-11 15:29:00,
2013-07-11 11:30:00,69.3,53.9,28.76,North,359,8.0,9.0,58,0.00,,---,0.00,VWS V14.01,2013-07-11 15:30:00,
2013-07-11 11:35:00,68.9,54.0,28.76,North,6,5.0,8.0,59,0.00,,---,0.00,VWS V14.01,2013-07-11 15:35:00,
2013-07-11 11:41:00,68.9,54.0,28.77,North,359,5.0,8.0,59,0.00,,---,0.00,VWS V14.01,2013-07-11 15:41:00,
2013-07-11 11:49:00,68.9,54.0,28.77,NE,43,9.0,9.0,59,0.00,,---,0.00,VWS V14.01,2013-07-11 15:49:00,
2013-07-11 11:55:00,69.1,54.2,28.77,North,4,7.0,9.0,59,0.00,,---,0.00,VWS V14.01,2013-07-11 15:55:00,
2013-07-11 12:00:00,69.3,55.3,28.76,East,97,3.0,9.0,61,0.00,,---,0.00,VWS V14.01,2013-07-11 16:00:00,
2013-07-11 12:01:00,69.4,54.9,28.77,East,97,3.0,7.0,60,0.00,,---,0.00,VWS V14.01,2013-07-11 16:01:00,
2013-07-11 12:07:00,69.2,54.3,28.77,North,4,6.0,11.0,59,0.00,,---,0.00,VWS V14.01,2013-07-11 16:07:00,
2013-07-11 12:14:00,68.9,54.5,28.78,ENE,77,9.0,11.0,60,0.00,,---,0.00,VWS V14.01,2013-07-11 16:14:00,
2013-07-11 12:20:00,68.9,54.5,28.78,NE,49,3.0,11.0,60,0.00,,---,0.00,VWS V14.01,2013-07-11 16:20:00,
2013-07-11 12:28:00,68.9,54.0,28.78,NNE,26,1.0,11.0,59,0.00,,---,0.00,VWS V14.01,2013-07-11 16:28:00,
2013-07-11 12:30:00,69.0,54.1,28.78,ENE,57,5.0,11.0,59,0.00,,---,0.00,VWS V14.01,2013-07-11 16:30:00,
2013-07-11 12:34:00,69.3,54.4,28.78,NE,44,5.0,7.0,59,0.00,,---,0.00,VWS V14.01,2013-07-11 16:34:00,
2013-07-11 12:40:00,69.2,53.3,28.78,North,0,4.0,7.0,57,0.00,,---,0.00,VWS V14.01,2013-07-11 16:40:00,
2013-07-11 12:48:00,69.3,52.5,28.78,North,0,4.0,7.0,55,0.00,,---,0.00,VWS V14.01,2013-07-11 16:48:00,
2013-07-11 12:54:00,69.4,53.0,28.78,NNE,29,4.0,7.0,56,0.00,,---,0.00,VWS V14.01,2013-07-11 16:54:00,
2013-07-11 13:00:00,69.7,53.3,28.78,North,0,1.0,8.0,56,0.00,,---,0.00,VWS V14.01,2013-07-11 17:00:00,
2013-07-11 13:05:00,70.5,53.6,28.78,ENE,58,2.0,7.0,55,0.00,,---,0.00,VWS V14.01,2013-07-11 17:05:00,
2013-07-11 13:13:00,70.0,52.6,28.77,North,359,3.0,8.0,54,0.00,,---,0.00,VWS V14.01,2013-07-11 17:13:00,
2013-07-11 13:19:00,70.0,52.6,28.77,ENE,73,10.0,10.0,54,0.00,,---,0.00,VWS V14.01,2013-07-11 17:19:00,
2013-07-11 13:25:00,71.1,53.1,28.77,North,7,2.0,10.0,53,0.00,,---,0.00,VWS V14.01,2013-07-11 17:25:00,
2013-07-11 13:30:00,71.4,52.9,28.77,North,0,2.0,10.0,52,0.00,,---,0.00,VWS V14.01,2013-07-11 17:30:00,
2013-07-11 13:34:00,71.0,53.5,28.77,North,354,3.0,9.0,54,0.00,,---,0.00,VWS V14.01,2013-07-11 17:34:00,
2013-07-11 13:40:00,71.0,53.0,28.78,NE,54,1.0,9.0,53,0.00,,---,0.00,VWS V14.01,2013-07-11 17:40:00,
2013-07-11 13:46:00,71.2,52.7,28.78,ENE,68,2.0,12.0,52,0.00,,---,0.00,VWS V14.01,2013-07-11 17:46:00,
2013-07-11 13:52:00,71.2,53.2,28.78,North,3,6.0,12.0,53,0.00,,---,0.00,VWS V14.01,2013-07-11 17:52:00,
2013-07-11 13:59:00,71.4,52.9,28.77,North,0,3.0,12.0,52,0.00,,---,0.00,VWS V14.01,2013-07-11 17:59:00,
2013-07-11 14:00:00,71.4,52.9,28.77,NNW,339,3.0,12.0,52,0.00,,---,0.00,VWS V14.01,2013-07-11 18:00:00,
2013-07-11 14:05:00,71.9,52.3,28.77,NE,38,4.0,5.0,50,0.00,,---,0.00,VWS V14.01,2013-07-11 18:05:00,
2013-07-11 14:11:00,72.7,53.0,28.77,NNE,32,2.0,7.0,50,0.00,,---,0.00,VWS V14.01,2013-07-11 18:11:00,
2013-07-11 14:19:00,73.0,52.2,28.77,NNE,33,7.0,9.0,48,0.00,,---,0.00,VWS V14.01,2013-07-11 18:19:00,
2013-07-11 14:25:00,73.8,52.3,28.78,South,175,5.0,9.0,47,0.00,,---,0.00,VWS V14.01,2013-07-11 18:25:00,
2013-07-11 14:30:00,74.1,52.0,28.78,South,171,3.0,12.0,46,0.00,,---,0.00,VWS V14.01,2013-07-11 18:30:00,
2013-07-11 14:31:00,74.0,51.9,28.78,SSW,199,2.0,4.0,46,0.00,,---,0.00,VWS V14.01,2013-07-11 18:31:00,
2013-07-11 14:37:00,73.0,52.2,28.78,SSE,166,4.0,10.0,48,0.00,,---,0.00,VWS V14.01,2013-07-11 18:37:00,
2013-07-11 14:44:00,72.9,51.5,28.77,SSE,147,4.0,10.0,47,0.00,,---,0.00,VWS V14.01,2013-07-11 18:44:00,
2013-07-11 14:50:00,72.9,52.1,28.77,South,178,6.0,10.0,48,0.00,,---,0.00,VWS V14.01,2013-07-11 18:50:00,
2013-07-11 14:56:00,73.5,53.2,28.77,SSE,150,6.0,10.0,49,0.00,,---,0.00,VWS V14.01,2013-07-11 18:56:00,
2013-07-11 15:00:00,73.0,53.3,28.77,SSE,157,4.0,10.0,50,0.00,,---,0.00,VWS V14.01,2013-07-11 19:00:00,
2013-07-11 15:02:00,73.1,53.9,28.77,SSE,164,1.0,4.0,51,0.00,,---,0.00,VWS V14.01,2013-07-11 19:02:00,
2013-07-11 15:08:00,73.5,53.2,28.77,SSW,194,1.0,5.0,49,0.00,,---,0.00,VWS V14.01,2013-07-11 19:08:00,
2013-07-11 15:14:00,74.4,52.9,28.78,SSW,202,2.0,9.0,47,0.00,,---,0.00,VWS V14.01,2013-07-11 19:14:00,
2013-07-11 15:25:00,73.6,53.3,28.78,South,181,3.0,10.0,49,0.00,,---,0.00,VWS V14.01,2013-07-11 19:25:00,
2013-07-11 15:30:00,72.7,52.5,28.78,SSE,151,4.0,10.0,49,0.00,,---,0.00,VWS V14.01,2013-07-11 19:30:00,
2013-07-11 15:37:00,71.6,52.5,28.78,SE,132,3.0,6.0,51,0.00,,---,0.00,VWS V14.01,2013-07-11 19:37:00,
2013-07-11 15:43:00,71.9,53.3,28.78,SE,139,2.0,6.0,52,0.00,,---,0.00,VWS V14.01,2013-07-11 19:43:00,
2013-07-11 15:49:00,72.1,52.5,28.78,South,182,6.0,8.0,50,0.00,,---,0.00,VWS V14.01,2013-07-11 19:49:00,
2013-07-11 15:55:00,73.3,53.0,28.78,SSE,161,4.0,8.0,49,0.00,,---,0.00,VWS V14.01,2013-07-11 19:55:00,
2013-07-11 16:00:00,73.7,52.8,28.78,NNE,28,2.0,8.0,48,0.00,,---,0.00,VWS V14.01,2013-07-11 20:00:00,
2013-07-11 16:02:00,73.7,52.8,28.78,NNE,28,4.0,6.0,48,0.00,,---,0.00,VWS V14.01,2013-07-11 20:02:00,
2013-07-11 16:08:00,72.9,52.6,28.78,SSE,164,3.0,7.0,49,0.00,,---,0.00,VWS V14.01,2013-07-11 20:08:00,
2013-07-11 16:14:00,73.0,52.7,28.78,SSE,166,3.0,8.0,49,0.00,,---,0.00,VWS V14.01,2013-07-11 20:14:00,
2013-07-11 16:20:00,72.4,52.7,28.78,SSE,166,5.0,9.0,50,0.00,,---,0.00,VWS V14.01,2013-07-11 20:20:00,
2013-07-11 16:26:00,72.4,52.7,28.78,SSE,157,3.0,9.0,50,0.00,,---,0.00,VWS V14.01,2013-07-11 20:26:00,
2013-07-11 16:30:00,72.7,53.0,28.78,SSE,155,3.0,9.0,50,0.00,,---,0.00,VWS V14.01,2013-07-11 20:30:00,
2013-07-11 16:34:00,73.3,53.6,28.78,SSE,163,1.0,7.0,50,0.00,,---,0.00,VWS V14.01,2013-07-11 20:34:00,
2013-07-11 16:40:00,73.2,52.9,28.77,South,177,6.0,7.0,49,0.00,,---,0.00,VWS V14.01,2013-07-11 20:40:00,
2013-07-11 16:46:00,73.4,53.1,28.78,SE,139,3.0,7.0,49,0.00,,---,0.00,VWS V14.01,2013-07-11 20:46:00,
2013-07-11 16:52:00,73.6,52.7,28.78,South,174,4.0,7.0,48,0.00,,---,0.00,VWS V14.01,2013-07-11 20:52:00,
2013-07-11 16:58:00,73.0,52.7,28.79,SSW,194,4.0,8.0,49,0.00,,---,0.00,VWS V14.01,2013-07-11 20:58:00,
2013-07-11 17:00:00,72.8,53.1,28.78,South,187,6.0,8.0,50,0.00,,---,0.00,VWS V14.01,2013-07-11 21:00:00,
2013-07-11 17:05:00,72.8,54.2,28.78,South,178,7.0,7.0,52,0.00,,---,0.00,VWS V14.01,2013-07-11 21:05:00,
2013-07-11 17:11:00,72.2,54.1,28.78,SSE,155,4.0,7.0,53,0.00,,---,0.00,VWS V14.01,2013-07-11 21:11:00,
2013-07-11 17:17:00,72.1,54.0,28.78,SSE,158,5.0,8.0,53,0.00,,---,0.00,VWS V14.01,2013-07-11 21:17:00,
2013-07-11 17:23:00,71.8,53.2,28.78,SSE,157,5.0,8.0,52,0.00,,---,0.00,VWS V14.01,2013-07-11 21:23:00,
2013-07-11 17:29:00,72.0,52.9,28.77,South,175,2.0,8.0,51,0.00,,---,0.00,VWS V14.01,2013-07-11 21:29:00,
2013-07-11 17:30:00,72.1,53.0,28.78,SE,139,2.0,8.0,51,0.00,,---,0.00,VWS V14.01,2013-07-11 21:30:00,
2013-07-11 17:35:00,72.4,52.7,28.78,SE,124,2.0,4.0,50,0.00,,---,0.00,VWS V14.01,2013-07-11 21:35:00,
2013-07-11 17:41:00,72.7,52.5,28.78,SE,137,2.0,6.0,49,0.00,,---,0.00,VWS V14.01,2013-07-11 21:41:00,
2013-07-11 17:47:00,72.4,53.3,28.78,SE,125,2.0,7.0,51,0.00,,---,0.00,VWS V14.01,2013-07-11 21:47:00,
2013-07-11 17:56:00,71.6,54.6,28.78,SE,136,2.0,7.0,55,0.00,,---,0.00,VWS V14.01,2013-07-11 21:56:00,
2013-07-11 18:00:00,71.3,54.3,28.78,SE,131,3.0,7.0,55,0.00,,---,0.00,VWS V14.01,2013-07-11 22:00:00,
2013-07-11 18:02:00,71.2,54.2,28.78,South,179,4.0,6.0,55,0.00,,---,0.00,VWS V14.01,2013-07-11 22:02:00,
2013-07-11 18:08:00,71.2,54.7,28.78,SE,126,2.0,6.0,56,0.00,,---,0.00,VWS V14.01,2013-07-11 22:08:00,
2013-07-11 18:14:00,71.5,54.5,28.78,ESE,108,2.0,8.0,55,0.00,,---,0.00,VWS V14.01,2013-07-11 22:14:00,
2013-07-11 18:20:00,71.7,54.2,28.78,ESE,117,3.0,8.0,54,0.00,,---,0.00,VWS V14.01,2013-07-11 22:20:00,
2013-07-11 18:26:00,72.2,54.7,28.78,SE,136,4.0,8.0,54,0.00,,---,0.00,VWS V14.01,2013-07-11 22:26:00,
2013-07-11 18:30:00,72.3,53.7,28.78,ESE,115,4.0,8.0,52,0.00,,---,0.00,VWS V14.01,2013-07-11 22:30:00,
2013-07-11 18:32:00,72.4,53.8,28.78,SE,131,2.0,4.0,52,0.00,,---,0.00,VWS V14.01,2013-07-11 22:32:00,
2013-07-11 18:40:00,72.9,54.3,28.78,ESE,123,3.0,4.0,52,0.00,,---,0.00,VWS V14.01,2013-07-11 22:40:00,
2013-07-11 18:49:00,72.8,54.7,28.79,SE,137,4.0,6.0,53,0.00,,---,0.00,VWS V14.01,2013-07-11 22:49:00,
2013-07-11 18:55:00,72.5,54.9,28.79,SE,136,3.0,6.0,54,0.00,,---,0.00,VWS V14.01,2013-07-11 22:55:00,
2013-07-11 19:00:00,72.4,54.8,28.79,South,182,5.0,7.0,54,0.00,,---,0.00,VWS V14.01,2013-07-11 23:00:00,
2013-07-11 19:01:00,72.4,55.3,28.79,South,173,5.0,5.0,55,0.00,,---,0.00,VWS V14.01,2013-07-11 23:01:00,
2013-07-11 19:09:00,72.5,54.9,28.79,SE,130,2.0,8.0,54,0.00,,---,0.00,VWS V14.01,2013-07-11 23:09:00,
2013-07-11 19:15:00,72.5,54.9,28.79,SE,129,3.0,8.0,54,0.00,,---,0.00,VWS V14.01,2013-07-11 23:15:00,
2013-07-11 19:21:00,72.6,55.5,28.79,SE,144,4.0,8.0,55,0.00,,---,0.00,VWS V14.01,2013-07-11 23:21:00,
2013-07-11 19:27:00,72.2,55.7,28.79,ESE,103,3.0,8.0,56,0.00,,---,0.00,VWS V14.01,2013-07-11 23:27:00,
2013-07-11 19:30:00,72.0,56.0,28.79,East,101,2.0,8.0,57,0.00,,---,0.00,VWS V14.01,2013-07-11 23:30:00,
2013-07-11 19:35:00,71.9,56.3,28.79,ESE,122,3.0,6.0,58,0.00,,---,0.00,VWS V14.01,2013-07-11 23:35:00,
2013-07-11 19:44:00,71.8,55.8,28.80,ESE,102,3.0,6.0,57,0.00,,---,0.00,VWS V14.01,2013-07-11 23:44:00,
2013-07-11 19:52:00,70.9,55.9,28.80,SE,138,3.0,7.0,59,0.00,,---,0.00,VWS V14.01,2013-07-11 23:52:00,
2013-07-11 19:58:00,70.6,56.1,28.80,ESE,120,2.0,7.0,60,0.00,,---,0.00,VWS V14.01,2013-07-11 23:58:00,
2013-07-11 20:00:00,70.5,56.4,28.80,SSE,151,2.0,7.0,61,0.00,,---,0.00,VWS V14.01,2013-07-12 00:00:00,
2013-07-11 20:04:00,70.2,56.1,28.80,South,181,1.0,8.0,61,0.00,,---,0.00,VWS V14.01,2013-07-12 00:04:00,
2013-07-11 20:10:00,69.7,56.1,28.80,South,183,3.0,9.0,62,0.00,,---,0.00,VWS V14.01,2013-07-12 00:10:00,
2013-07-11 20:16:00,69.2,56.1,28.80,SSE,164,4.0,9.0,63,0.00,,---,0.00,VWS V14.01,2013-07-12 00:16:00,
2013-07-11 20:22:00,68.8,56.1,28.80,SSE,155,3.0,9.0,64,0.00,,---,0.00,VWS V14.01,2013-07-12 00:22:00,
2013-07-11 20:28:00,68.4,56.2,28.80,SSE,168,3.0,9.0,65,0.00,,---,0.00,VWS V14.01,2013-07-12 00:28:00,
2013-07-11 20:30:00,68.3,56.1,28.80,SSE,165,2.0,9.0,65,0.00,,---,0.00,VWS V14.01,2013-07-12 00:30:00,
2013-07-11 20:35:00,68.1,56.3,28.81,SSE,163,2.0,4.0,66,0.00,,---,0.00,VWS V14.01,2013-07-12 00:35:00,
2013-07-11 20:41:00,67.7,56.0,28.81,SSE,163,2.0,5.0,66,0.00,,---,0.00,VWS V14.01,2013-07-12 00:41:00,
2013-07-11 20:47:00,67.3,56.0,28.81,SSE,164,2.0,5.0,67,0.00,,---,0.00,VWS V14.01,2013-07-12 00:47:00,
2013-07-11 20:53:00,66.9,56.0,28.81,SSE,166,1.0,5.0,68,0.00,,---,0.00,VWS V14.01,2013-07-12 00:53:00,
2013-07-11 21:00:00,66.6,56.1,28.81,SSE,163,0.0,5.0,69,0.00,,---,0.00,VWS V14.01,2013-07-12 01:00:00,
2013-07-11 21:05:00,66.4,56.3,28.81,SSE,162,0.0,4.0,70,0.00,,---,0.00,VWS V14.01,2013-07-12 01:05:00,
2013-07-11 21:11:00,66.1,56.4,28.80,SSE,163,0.0,4.0,71,0.00,,---,0.00,VWS V14.01,2013-07-12 01:11:00,
2013-07-11 21:17:00,65.9,56.6,28.81,SSE,162,0.0,4.0,72,0.00,,---,0.00,VWS V14.01,2013-07-12 01:17:00,
2013-07-11 21:24:00,65.6,56.7,28.81,SSE,167,0.0,4.0,73,0.00,,---,0.00,VWS V14.01,2013-07-12 01:24:00,
2013-07-11 21:30:00,65.4,56.5,28.81,SSE,164,0.0,4.0,73,0.00,,---,0.00,VWS V14.01,2013-07-12 01:30:00,
2013-07-11 21:38:00,64.9,56.4,28.81,SSE,166,1.0,1.0,74,0.00,,---,0.00,VWS V14.01,2013-07-12 01:38:00,
2013-07-11 21:44:00,64.8,56.7,28.82,SSE,166,0.0,2.0,75,0.00,,---,0.00,VWS V14.01,2013-07-12 01:44:00,
2013-07-11 21:52:00,64.7,57.0,28.81,SSE,165,2.0,3.0,76,0.00,,---,0.00,VWS V14.01,2013-07-12 01:52:00,
2013-07-11 21:58:00,64.7,57.3,28.81,SSE,163,2.0,3.0,77,0.00,,---,0.00,VWS V14.01,2013-07-12 01:58:00,
2013-07-11 22:00:00,64.6,57.2,28.81,SSE,164,1.0,3.0,77,0.00,,---,0.00,VWS V14.01,2013-07-12 02:00:00,
2013-07-11 22:04:00,64.3,57.0,28.81,SSE,163,1.0,3.0,77,0.00,,---,0.00,VWS V14.01,2013-07-12 02:04:00,
2013-07-11 22:10:00,64.1,57.1,28.81,SSE,163,0.0,3.0,78,0.00,,---,0.00,VWS V14.01,2013-07-12 02:10:00,
2013-07-11 22:17:00,64.2,57.2,28.81,SSE,168,1.0,3.0,78,0.00,,---,0.00,VWS V14.01,2013-07-12 02:17:00,
2013-07-11 22:23:00,64.1,57.1,28.82,SSE,165,1.0,3.0,78,0.00,,---,0.00,VWS V14.01,2013-07-12 02:23:00,
2013-07-11 22:29:00,63.6,56.6,28.81,SSE,168,0.0,3.0,78,0.00,,---,0.00,VWS V14.01,2013-07-12 02:29:00,
2013-07-11 22:30:00,63.5,56.9,28.82,SSE,168,1.0,3.0,79,0.00,,---,0.00,VWS V14.01,2013-07-12 02:30:00,
2013-07-11 22:35:00,63.3,57.0,28.81,SSE,167,2.0,2.0,80,0.00,,---,0.00,VWS V14.01,2013-07-12 02:35:00,
2013-07-11 22:41:00,63.1,57.2,28.81,SSE,165,0.0,2.0,81,0.00,,---,0.00,VWS V14.01,2013-07-12 02:41:00,
2013-07-11 22:47:00,62.8,56.9,28.81,SSE,165,0.0,2.0,81,0.00,,---,0.00,VWS V14.01,2013-07-12 02:47:00,
2013-07-11 22:53:00,62.5,56.9,28.81,SSE,164,0.0,2.0,82,0.00,,---,0.00,VWS V14.01,2013-07-12 02:53:00,
2013-07-11 22:59:00,62.2,56.6,28.80,SSE,162,0.0,2.0,82,0.00,,---,0.00,VWS V14.01,2013-07-12 02:59:00,
2013-07-11 23:00:00,62.2,56.7,28.80,SSE,162,0.0,2.0,82,0.00,,---,0.00,VWS V14.01,2013-07-12 03:00:00,
2013-07-11 23:05:00,62.0,56.8,28.80,SSE,162,1.0,1.0,83,0.00,,---,0.00,VWS V14.01,2013-07-12 03:05:00,
2013-07-11 23:13:00,61.6,56.7,28.80,SSE,165,0.0,1.0,84,0.00,,---,0.00,VWS V14.01,2013-07-12 03:13:00,
2013-07-11 23:19:00,61.3,56.4,28.81,SSE,162,0.0,1.0,84,0.00,,---,0.00,VWS V14.01,2013-07-12 03:19:00,
2013-07-11 23:28:00,61.1,56.9,28.81,SSE,161,0.0,2.0,86,0.00,,---,0.00,VWS V14.01,2013-07-12 03:28:00,
2013-07-11 23:30:00,61.1,56.9,28.81,SE,139,2.0,2.0,86,0.00,,---,0.00,VWS V14.01,2013-07-12 03:30:00,
2013-07-11 23:34:00,61.0,56.8,28.81,SE,137,2.0,3.0,86,0.00,,---,0.00,VWS V14.01,2013-07-12 03:34:00,
2013-07-11 23:40:00,60.9,56.7,28.82,SE,135,0.0,3.0,86,0.00,,---,0.00,VWS V14.01,2013-07-12 03:40:00,
2013-07-11 23:46:00,60.8,56.9,28.82,SE,135,0.0,3.0,87,0.00,,---,0.00,VWS V14.01,2013-07-12 03:46:00,
2013-07-11 23:52:00,60.8,56.9,28.82,SE,134,0.0,3.0,87,0.00,,---,0.00,VWS V14.01,2013-07-12 03:52:00,
2013-07-11 23:58:00,60.7,56.8,28.82,SE,142,0.0,3.0,87,0.00,,---,0.00,VWS V14.01,2013-07-12 03:58:00,